Flight Track Log - Related Links

Times and Time Zones

All times are in EDT time to prevent confusion due to time zone crossing. See the ASQ318T flight status page for this flight to view local times or setup timezone preferences in your user account.

Time Position Orientation Groundspeed Altitude Reporting Facility
EDT Latitude Longitude Course Direction KTS MPH feet Rate Location/Type
Sun 02:56:03 PM 29.9889 -95.3644 224° Southwest 158 182 800  Level Houston Center
Sun 02:57:22 PM 29.9525 -95.4050 224° Southwest 263 303 3,500 1,932 Climbing Houston Center
Sun 02:58:01 PM 29.9242 -95.3644 129° Southeast 259 298 4,600 1,475 Climbing Houston Center
Sun 02:58:23 PM 29.9122 -95.3303 112° Southeast 287 330 5,000 774 Climbing Houston Center
Sun 02:59:03 PM 29.8936 -95.2756 111° Southeast 290 334 5,400 1,368 Climbing Houston Center
Sun 02:59:20 PM 29.8919 -95.2483 94° East 296 341 6,300 2,323 Climbing Houston Center
Sun 03:00:05 PM 29.8908 -95.1758 91° East 312 359 7,800 2,000 Climbing Houston Center
Sun 03:00:20 PM 29.8889 -95.1450 94° East 333 383 8,300 2,323 Climbing Houston Center
Sun 03:01:07 PM 29.8881 -95.0658 91° East 337 388 10,200 1,596 Climbing Houston Center
Sun 03:02:09 PM 29.8839 -94.9456 92° East 371 427 11,200 1,210 Climbing Houston Center
Sun 03:03:11 PM 29.8794 -94.8111 92° East 415 478 12,700 1,440 Climbing Houston Center
Sun 03:04:14 PM 29.8750 -94.6708 92° East 431 496 14,200 1,584 Climbing Houston Center
Sun 03:05:16 PM 29.8700 -94.5294 92° East 440 506 16,000 1,597 Climbing Houston Center
Sun 03:06:18 PM 29.8644 -94.3569 92° East 446 513 17,500 1,258 Climbing Houston Center
Sun 03:07:20 PM 29.8594 -94.2086 92° East 457 526 18,600 1,065 Climbing Houston Center
Sun 03:08:22 PM 29.8547 -94.0492 92° East 470 541 19,700 1,016 Climbing Houston Center
Sun 03:09:24 PM 29.8703 -93.8928 83° East 492 566 20,700 968 Climbing Houston Center
Sun 03:10:26 PM 29.8864 -93.7367 83° East 495 570 21,700 1,065 Climbing Houston Center
Sun 03:11:28 PM 29.9031 -93.5794 83° East 499 574 22,900 1,296 Climbing Houston Center
Sun 03:12:31 PM 29.9217 -93.3900 83° East 501 577 24,400 1,296 Climbing Houston Center
Sun 03:13:33 PM 29.9375 -93.2319 83° East 503 579 25,600 1,161 Climbing Houston Center
Sun 03:14:35 PM 29.9536 -93.0756 83° East 498 573 26,800 1,161 Climbing Houston Center
Sun 03:15:37 PM 29.9694 -92.9194 83° East 496 571 28,000 1,161 Climbing Houston Center
Sun 03:16:39 PM 29.9819 -92.7633 85° East 493 567 29,200 1,258 Climbing Houston Center
Sun 03:17:41 PM 30.0217 -92.5831 76° East 493 567 30,600 1,161 Climbing Houston Center
Sun 03:18:43 PM 30.0892 -92.4461 60° Northeast 495 570 31,600 960 Climbing Houston Center
Sun 03:19:46 PM 30.1581 -92.3081 60° Northeast 497 572 32,600 1,008 Climbing Houston Center
Sun 03:20:48 PM 30.2322 -92.1567 60° Northeast 502 578 33,700 1,016 Climbing Houston Center
Sun 03:21:50 PM 30.2997 -92.0161 61° Northeast 503 579 34,700 629 Climbing Houston Center
Sun 03:22:52 PM 30.3683 -91.8758 60° Northeast 504 580 35,000 145 Climbing Houston Center
Sun 03:23:54 PM 30.4514 -91.7019 61° Northeast 531 611 35,000  Level Houston Center
Sun 03:24:56 PM 30.5314 -91.5381 60° Northeast 563 648 35,000  Level Houston Center
Sun 03:26:00 PM 30.6183 -91.4137 60° Northeast  Level FlightAware Approximate
Sun 03:27:00 PM 30.6861 -91.2150 60° Northeast 585 673 35,000  Level Houston Center
Sun 03:28:03 PM 30.7658 -91.0475 61° Northeast 590 679 35,000  Level Houston Center
Sun 03:29:05 PM 30.8439 -90.8811 61° Northeast 588 677 35,000  Level Houston Center
Sun 03:30:07 PM 30.9367 -90.6831 61° Northeast 582 670 35,000  Level Houston Center
Sun 03:31:09 PM 31.0139 -90.5172 61° Northeast 580 667 35,000  Level Houston Center
Sun 03:32:12 PM 31.0911 -90.3511 61° Northeast 581 669 35,000  Level Houston Center
Sun 03:33:14 PM 31.1694 -90.1822 62° Northeast 587 676 35,000  Level Houston Center
Sun 03:34:16 PM 31.2469 -90.0133 62° Northeast 587 676 35,000 -48 Level Houston Center
Sun 03:35:18 PM 31.3261 -89.8436 61° Northeast 590 679 34,900  Descending Houston Center
Sun 03:36:20 PM 31.4033 -89.6753 62° Northeast 586 674 35,000 48 Climbing Houston Center
Sun 03:37:22 PM 31.4833 -89.4989 62° Northeast 584 672 35,000  Level Houston Center
Sun 03:38:24 PM 31.5736 -89.2983 62° Northeast 577 664 35,000  Level Houston Center
Sun 03:39:26 PM 31.6500 -89.1283 62° Northeast 584 672 35,000  Level Houston Center
Sun 03:40:29 PM 31.7267 -88.9581 62° Northeast 587 676 35,000  Level Houston Center
Sun 03:41:31 PM 31.8014 -88.7878 63° Northeast 587 676 35,000  Level Houston Center
Sun 03:42:27 PM 31.8808 -88.6219 61° Northeast 572 658 35,000  Level Atlanta Center
Sun 03:43:27 PM 31.9558 -88.4497 63° Northeast 572 658 35,000  Level Atlanta Center
Sun 03:44:27 PM 32.0283 -88.2842 63° Northeast 572 658 35,000  Level Atlanta Center
Sun 03:45:27 PM 32.1050 -88.1161 62° Northeast 567 652 35,000  Level Atlanta Center
Sun 03:46:27 PM 32.1753 -87.9478 64° Northeast 567 652 35,000  Level Atlanta Center
Sun 03:47:27 PM 32.2514 -87.7792 62° Northeast 567 652 35,000  Level Atlanta Center
Sun 03:48:27 PM 32.3253 -87.6103 63° Northeast 567 652 35,000  Level Atlanta Center
Sun 03:49:27 PM 32.3967 -87.4433 63° Northeast 567 652 35,000  Level Atlanta Center
Sun 03:50:27 PM 32.4683 -87.2664 64° Northeast 573 659 35,000  Level Atlanta Center
Sun 03:51:27 PM 32.5394 -87.0989 63° Northeast 578 665 35,000  Level Atlanta Center
Sun 03:52:27 PM 32.6144 -86.9289 62° Northeast 573 659 35,000  Level Atlanta Center
Sun 03:53:27 PM 32.6831 -86.7586 64° Northeast 573 659 35,000  Level Atlanta Center
Sun 03:54:27 PM 32.7556 -86.5878 63° Northeast 568 654 35,000  Level Atlanta Center
Sun 03:55:27 PM 32.8236 -86.4242 64° Northeast 562 647 35,000  Level Atlanta Center
Sun 03:56:27 PM 32.8956 -86.2531 63° Northeast 562 647 35,000  Level Atlanta Center
Sun 03:57:27 PM 32.9653 -86.0839 64° Northeast 560 644 35,000  Level Atlanta Center
Sun 03:58:27 PM 33.0347 -85.9144 64° Northeast 568 654 35,000  Level Atlanta Center
Sun 03:59:27 PM 33.1042 -85.7450 64° Northeast 561 646 35,000  Level Atlanta Center
Sun 04:00:27 PM 33.1711 -85.5750 65° Northeast 561 646 35,000  Level Atlanta Center
Sun 04:01:27 PM 33.2272 -85.4022 69° East 561 646 35,000  Level Atlanta Center
Sun 04:02:27 PM 33.2586 -85.2139 79° East 567 652 35,000  Level Atlanta Center
Sun 04:03:27 PM 33.2872 -85.0253 80° East 574 661 35,000  Level Atlanta Center
Sun 04:04:27 PM 33.3178 -84.8367 79° East 580 667 35,000  Level Atlanta Center
Sun 04:05:27 PM 33.3461 -84.6456 80° East 580 667 35,000  Level Atlanta Center
Sun 04:06:27 PM 33.3739 -84.4792 79° East 580 667 35,000  Level Atlanta Center
Sun 04:07:27 PM 33.4017 -84.2878 80° East 580 667 35,000  Level Atlanta Center
Sun 04:08:27 PM 33.4311 -84.0986 79° East 580 667 35,000  Level Atlanta Center
Sun 04:09:27 PM 33.4581 -83.9119 80° East 580 667 35,000  Level Atlanta Center
Sun 04:10:27 PM 33.4869 -83.7200 80° East 580 667 35,000  Level Atlanta Center
Sun 04:11:27 PM 33.5136 -83.5331 80° East 575 662 35,000  Level Atlanta Center
Sun 04:12:27 PM 33.5439 -83.3408 79° East 581 669 35,000  Level Atlanta Center
Sun 04:13:27 PM 33.5719 -83.1511 80° East 575 662 35,000 -250 Level Atlanta Center
Sun 04:14:27 PM 33.5975 -82.9614 81° East 581 669 34,500 -950 Descending Atlanta Center
Sun 04:15:27 PM 33.6228 -82.7714 81° East 576 663 33,100 -750 Descending Atlanta Center
Sun 04:16:27 PM 33.6519 -82.5789 80° East 582 670 33,000 -50 Descending Atlanta Center
Sun 04:17:27 PM 33.6786 -82.3739 81° East 577 664 33,000  Level Atlanta Center
Sun 04:19:33 PM 33.7350 -81.9936 80° East 594 684 33,000  Level Jacksonville Center
Sun 04:20:33 PM 33.7650 -81.8033 79° East 588 677 33,000 -250 Level Jacksonville Center
Sun 04:21:33 PM 33.8406 -81.6447 60° Northeast 557 641 32,500 -950 Descending Jacksonville Center
Sun 04:22:33 PM 33.9331 -81.4933 54° Northeast 546 628 31,100 -750 Descending Jacksonville Center
Sun 04:23:33 PM 34.0250 -81.3364 55° Northeast 559 643 31,000 -50 Descending Jacksonville Center
Sun 04:24:33 PM 34.1192 -81.1844 53° Northeast 559 643 31,000  Level Jacksonville Center
Sun 04:25:33 PM 34.2108 -81.0319 54° Northeast 564 649 31,000  Level Jacksonville Center
Sun 04:26:32 PM 34.2900 -80.8994 54° Northeast 554 638 31,000 -850 Level Jacksonville Center
Sun 04:27:33 PM 34.4036 -80.7006 55° Northeast 560 644 29,300 -1,934 Descending Jacksonville Center
Sun 04:28:33 PM 34.4867 -80.5650 53° Northeast 568 654 27,100 -1,714 Descending Jacksonville Center
Sun 04:30:56 PM 34.6869 -80.2267 54° Northeast 515 593 23,500 -1,212 Descending Washington Center
Sun 04:31:56 PM 34.7717 -80.0850 54° Northeast 510 587 23,000 -950 Descending Washington Center
Sun 04:32:56 PM 34.8722 -79.9664 44° Northeast 498 573 21,600 -1,950 Descending Washington Center
Sun 04:33:56 PM 34.9700 -79.8550 43° Northeast 488 562 19,100 -2,600 Descending Washington Center
Sun 04:34:56 PM 35.0675 -79.7511 41° Northeast 463 533 16,400 -2,350 Descending Washington Center
Sun 04:35:56 PM 35.1672 -79.6419 42° Northeast 442 509 14,400 -1,796 Descending Washington Center
Sun 04:37:13 PM 35.2894 -79.5439 33° Northeast 405 466 12,300 -1,478 Descending Washington Center
Sun 04:38:14 PM 35.3900 -79.4725 30° Northeast 384 442 11,000 -689 Descending Washington Center
Sun 04:39:15 PM 35.4733 -79.4128 30° Northeast 333 383 10,900 -716 Descending Washington Center
Sun 04:40:03 PM 35.5253 -79.3564 41° Northeast 322 371 9,700 -1,046 Descending Washington Center
Sun 04:41:04 PM 35.5781 -79.2694 53° Northeast 319 367 9,000 -584 Descending Washington Center
Sun 04:41:56 PM 35.6056 -79.1814 69° East 303 349 8,600 -857 Descending Washington Center
Sun 04:42:56 PM 35.6375 -79.0933 66° East 282 325 7,400 -1,154 Descending Washington Center
Sun 04:44:06 PM 35.7000 -79.0194 44° Northeast 271 312 6,100 -1,000 Descending Washington Center
Sun 04:45:08 PM 35.7492 -78.9781 34° Northeast 259 298 5,200 -938 Descending Washington Center
Sun 04:46:14 PM 35.7894 -79.0361 311° West 215 247 4,100 -571 Descending Washington Center
Sun 04:47:14 PM 35.7442 -79.0803 218° Southwest 215 247 4,000 -50 Descending Washington Center
Sun 04:48:15 PM 35.7228 -79.0331 119° Southeast 171 197 4,000  Level Washington Center
Sun 04:49:09 PM 35.7303 -78.9900 78° East 158 182 4,000 -55 Level Washington Center
Sun 04:50:04 PM 35.7583 -78.9503 49° Northeast 174 200 3,900 -517 Descending Washington Center
Sun 04:51:05 PM 35.7867 -78.9131 47° Northeast 145 167 3,000 -843 Descending Washington Center
Sun 04:52:05 PM 35.8147 -78.8808 43° Northeast 132 152 2,200 -793 Descending Washington Center
Sun 04:53:06 PM 35.8383 -78.8486 48° Northeast 119 137 1,400 -744 Descending Washington Center
Sun 04:54:06 PM 35.8622 -78.8214 43° Northeast 123 142 700 -700 Descending Washington Center
Sun 04:56:00 PM 35.8667 -78.7833 51° Northeast  Level FlightAware Approximate
Sun 05:03:00 PM 35.8776 -78.7875 51° Northeast  Level Estimated

Login

Don't have an account? Register now (free) for customized features, flight alerts, and more!